Time;durP1;ratioP1;P1;durP2;ratioP2;P2;SDS_P1;SDS_P2;PMS_P1;PMS_P2;Temp;Humidity;BMP_temperature;BMP_pressure;BME280_temperature;BME280_humidity;BME280_pressure;Samples;Min_cycle;Max_cycle;Signal;HPM_P1;HPM_P2
2023/06/20 00:01:43;;;;;;;5.30;4.80;;;;;;;23.58;100.00;98627.72;5130652;27;20200;-76
2023/06/20 00:04:12;;;;;;;5.13;4.72;;;;;;;23.72;100.00;98626.81;5129296;27;20194;-77
2023/06/20 00:06:40;;;;;;;6.18;4.82;;;;;;;23.64;100.00;98633.22;5125954;27;20206;-77
2023/06/20 00:09:08;;;;;;;4.95;4.55;;;;;;;23.65;100.00;98631.34;5126433;27;20661;-77
2023/06/20 00:11:37;;;;;;;6.75;5.07;;;;;;;23.52;100.00;98628.47;5129270;27;20198;-77
2023/06/20 00:14:07;;;;;;;6.35;5.05;;;;;;;23.57;100.00;98634.97;5128397;27;20194;-77
2023/06/20 00:16:35;;;;;;;5.55;4.97;;;;;;;23.54;100.00;98638.06;5077597;27;20198;-77
2023/06/20 00:19:04;;;;;;;7.88;4.97;;;;;;;23.39;100.00;98640.84;5126884;27;20201;-77
2023/06/20 00:21:32;;;;;;;5.32;4.82;;;;;;;23.51;100.00;98635.75;5135329;27;20205;-77
2023/06/20 00:24:01;;;;;;;5.32;4.82;;;;;;;23.54;100.00;98639.91;5130045;27;20198;-77
2023/06/20 00:26:30;;;;;;;5.85;4.88;;;;;;;23.64;100.00;98640.47;5133505;27;20689;-77
2023/06/20 00:28:58;;;;;;;5.93;5.30;;;;;;;23.57;100.00;98631.44;5123972;27;20190;-77
2023/06/20 00:31:28;;;;;;;5.47;4.90;;;;;;;23.55;100.00;98639.75;5126092;27;20214;-77
2023/06/20 00:33:56;;;;;;;6.00;5.05;;;;;;;23.39;100.00;98634.59;5133537;27;20201;-77
2023/06/20 00:36:26;;;;;;;6.05;5.50;;;;;;;23.36;100.00;98627.72;5123119;27;20273;-77
2023/06/20 00:38:55;;;;;;;6.03;5.28;;;;;;;23.26;100.00;98635.31;5077315;28;20215;-77
2023/06/20 00:41:24;;;;;;;9.20;5.78;;;;;;;23.12;100.00;98638.88;5108553;28;20197;-77
2023/06/20 00:43:52;;;;;;;7.10;5.70;;;;;;;23.07;100.00;98642.16;5105778;28;20202;-77
2023/06/20 00:46:24;;;;;;;6.82;5.38;;;;;;;23.03;100.00;98640.88;5108730;28;20205;-77
2023/06/20 00:48:54;;;;;;;5.55;5.07;;;;;;;22.96;100.00;98634.53;5115381;28;20274;-77
2023/06/20 00:51:28;;;;;;;5.82;5.15;;;;;;;23.03;100.00;98635.47;5107454;28;20254;-77
2023/06/20 00:53:57;;;;;;;6.07;5.47;;;;;;;22.90;100.00;98634.47;5108824;28;20187;-77
2023/06/20 00:56:28;;;;;;;6.90;5.05;;;;;;;22.75;100.00;98637.16;5108492;28;20194;-77
2023/06/20 00:58:56;;;;;;;6.10;5.47;;;;;;;22.73;100.00;98636.53;5112257;28;20237;-76
2023/06/20 01:01:26;;;;;;;7.30;5.75;;;;;;;22.74;100.00;98632.78;5104813;28;20191;-77
2023/06/20 01:03:56;;;;;;;9.30;5.82;;;;;;;22.73;100.00;98637.34;5108266;28;20202;-77
2023/06/20 01:06:37;;;;;;;6.65;5.43;;;;;;;22.61;100.00;98646.13;5107042;28;20269;-77
2023/06/20 01:09:16;;;;;;;6.25;5.30;;;;;;;22.70;100.00;98651.25;5100874;28;20199;-77
2023/06/20 01:11:51;;;;;;;6.90;5.80;;;;;;;22.65;100.00;98650.97;5111564;28;20218;-77
2023/06/20 01:14:26;;;;;;;6.85;5.57;;;;;;;22.58;100.00;98647.31;5109441;28;20205;-76
2023/06/20 01:17:00;;;;;;;8.10;5.40;;;;;;;22.56;100.00;98646.69;5106752;28;20197;-77
2023/06/20 01:19:50;;;;;;;6.50;5.45;;;;;;;22.44;100.00;98653.59;5108676;28;20225;-77
2023/06/20 01:22:35;;;;;;;5.85;5.28;;;;;;;22.67;100.00;98645.38;5105797;28;20195;-76
2023/06/20 01:25:08;;;;;;;5.90;5.40;;;;;;;22.62;100.00;98643.25;5114541;28;20206;-77
2023/06/20 01:27:39;;;;;;;7.60;5.57;;;;;;;22.68;100.00;98647.03;5101932;28;20202;-77
2023/06/20 01:30:13;;;;;;;5.45;4.93;;;;;;;22.67;100.00;98651.59;5102830;28;20222;-77
2023/06/20 01:32:47;;;;;;;5.63;5.13;;;;;;;22.66;100.00;98651.78;5109737;28;20199;-76
2023/06/20 01:35:21;;;;;;;7.60;5.43;;;;;;;22.55;100.00;98662.03;5106362;28;20203;-77
2023/06/20 01:37:59;;;;;;;6.30;5.70;;;;;;;21.92;100.00;98676.84;5106094;28;20202;-77
2023/06/20 01:40:28;;;;;;;9.18;5.63;;;;;;;21.93;100.00;98689.31;5103654;28;20193;-76
2023/06/20 01:43:01;;;;;;;6.10;5.53;;;;;;;21.63;100.00;98709.09;5102737;28;20222;-76
2023/06/20 01:45:34;;;;;;;7.38;5.78;;;;;;;21.74;100.00;98719.47;5103383;28;20209;-76
2023/06/20 01:48:06;;;;;;;7.97;5.95;;;;;;;21.85;100.00;98710.09;5102883;28;20191;-76
2023/06/20 01:50:37;;;;;;;7.38;6.68;;;;;;;21.93;100.00;98704.66;5106750;28;20306;-77
2023/06/20 01:53:09;;;;;;;6.68;6.03;;;;;;;22.06;100.00;98696.78;5104356;28;20633;-77
2023/06/20 01:55:41;;;;;;;6.60;6.00;;;;;;;22.12;100.00;98698.78;5114290;28;20191;-76
2023/06/20 01:58:11;;;;;;;13.93;6.68;;;;;;;22.16;100.00;98696.53;5109261;28;20203;-77
2023/06/20 02:00:40;;;;;;;9.23;5.88;;;;;;;22.32;100.00;98693.69;5106169;28;20202;-76
2023/06/20 02:03:10;;;;;;;7.15;6.32;;;;;;;22.38;100.00;98701.03;5111302;28;20256;-76
2023/06/20 02:05:42;;;;;;;7.28;5.88;;;;;;;22.23;100.00;98694.78;5101650;28;20203;-76
2023/06/20 02:08:16;;;;;;;6.65;6.00;;;;;;;22.22;100.00;98674.22;5108170;28;20199;-76
2023/06/20 02:10:45;;;;;;;7.28;6.45;;;;;;;22.16;100.00;98681.19;5104532;28;20257;-76
2023/06/20 02:13:15;;;;;;;6.93;6.32;;;;;;;22.31;100.00;98680.38;5102604;28;20199;-76
2023/06/20 02:15:45;;;;;;;6.55;5.93;;;;;;;22.21;100.00;98691.44;5107947;28;20187;-76
2023/06/20 02:18:13;;;;;;;8.20;6.43;;;;;;;22.04;100.00;98696.13;5106410;28;20195;-76
2023/06/20 02:20:42;;;;;;;6.68;6.00;;;;;;;22.06;100.00;98710.25;5102580;28;20222;-76
2023/06/20 02:23:11;;;;;;;6.72;6.00;;;;;;;21.87;100.00;98710.75;5103520;28;20199;-76
2023/06/20 02:25:46;;;;;;;9.50;6.75;;;;;;;21.68;100.00;98710.22;5106636;28;20199;-76
2023/06/20 02:28:16;;;;;;;7.05;6.35;;;;;;;21.67;100.00;98692.38;5102758;28;20225;-76
2023/06/20 02:30:47;;;;;;;9.55;6.47;;;;;;;21.67;100.00;98697.78;5106740;28;20219;-76
2023/06/20 02:33:16;;;;;;;6.97;6.32;;;;;;;21.75;100.00;98686.09;5103257;28;20630;-76
2023/06/20 02:35:49;;;;;;;6.97;6.28;;;;;;;21.76;100.00;98678.84;5104063;28;20227;-76
2023/06/20 02:38:18;;;;;;;7.72;6.88;;;;;;;21.65;100.00;98693.59;5110031;27;20237;-76
2023/06/20 02:40:50;;;;;;;7.55;6.85;;;;;;;21.60;100.00;98695.97;5121804;27;20202;-76
2023/06/20 02:43:19;;;;;;;7.20;6.50;;;;;;;21.75;100.00;98687.94;5126570;27;20218;-76
2023/06/20 02:45:51;;;;;;;8.73;6.97;;;;;;;21.69;100.00;98694.88;5118818;27;20198;-76
2023/06/20 02:48:27;;;;;;;7.65;6.90;;;;;;;21.66;100.00;98704.19;5128826;27;20529;-77
2023/06/20 02:51:06;;;;;;;7.20;6.60;;;;;;;21.64;100.00;98706.22;5122809;27;20224;-77
2023/06/20 02:53:44;;;;;;;9.68;6.82;;;;;;;21.64;100.00;98702.69;5126164;27;20283;-76
2023/06/20 02:56:17;;;;;;;7.10;6.40;;;;;;;21.56;100.00;98700.91;5123065;27;20202;-77
2023/06/20 02:58:52;;;;;;;9.45;7.20;;;;;;;21.39;100.00;98700.16;5130795;27;20202;-76
2023/06/20 03:01:26;;;;;;;8.73;7.32;;;;;;;21.42;100.00;98702.50;5130509;27;20200;-76
2023/06/20 03:04:00;;;;;;;8.75;7.28;;;;;;;21.15;100.00;98703.81;5127974;28;20240;-76
2023/06/20 03:06:30;;;;;;;8.43;7.07;;;;;;;21.21;100.00;98728.34;5124372;28;20565;-76
2023/06/20 03:09:02;;;;;;;8.52;7.55;;;;;;;20.96;100.00;98747.34;5126822;28;20213;-76
2023/06/20 03:11:33;;;;;;;8.70;7.70;;;;;;;20.81;100.00;98762.53;5106741;28;20221;-77
2023/06/20 03:14:03;;;;;;;8.07;7.10;;;;;;;20.67;100.00;98757.88;5102186;28;20236;-77
2023/06/20 03:16:32;;;;;;;8.53;7.80;;;;;;;20.67;100.00;98760.56;5104101;28;20229;-76
2023/06/20 03:19:02;;;;;;;10.80;7.43;;;;;;;20.80;100.00;98779.69;5104840;28;20195;-77
2023/06/20 03:21:31;;;;;;;7.88;7.10;;;;;;;20.68;100.00;98775.69;5101990;28;20195;-77
2023/06/20 03:23:59;;;;;;;8.32;7.53;;;;;;;20.62;100.00;98776.38;5101491;28;20213;-76
2023/06/20 03:26:28;;;;;;;8.23;7.23;;;;;;;20.74;100.00;98761.53;5105463;28;20670;-77
2023/06/20 03:28:57;;;;;;;8.70;7.80;;;;;;;20.66;100.00;98766.97;5111477;28;20230;-76
2023/06/20 03:31:27;;;;;;;8.13;7.30;;;;;;;20.88;100.00;98765.38;5128531;28;20222;-76
2023/06/20 03:33:55;;;;;;;7.73;7.03;;;;;;;20.96;100.00;98755.41;5129948;27;20194;-76
2023/06/20 03:36:24;;;;;;;9.15;6.63;;;;;;;20.90;100.00;98753.41;5129410;27;20214;-75
2023/06/20 03:38:52;;;;;;;7.90;7.20;;;;;;;20.94;100.00;98761.97;5114956;27;20233;-76
2023/06/20 03:41:21;;;;;;;7.50;6.72;;;;;;;20.98;100.00;98757.94;5109444;28;20191;-76
2023/06/20 03:43:50;;;;;;;8.07;7.27;;;;;;;21.03;100.00;98766.31;5073199;28;20246;-76
2023/06/20 03:46:19;;;;;;;7.23;6.53;;;;;;;21.08;100.00;98766.63;5064238;28;20264;-76
2023/06/20 03:48:48;;;;;;;7.20;6.60;;;;;;;21.07;100.00;98760.41;5058454;28;20275;-76
2023/06/20 03:51:16;;;;;;;8.48;7.57;;;;;;;21.03;100.00;98755.53;5023062;28;20232;-76
2023/06/20 03:53:44;;;;;;;9.00;7.20;;;;;;;21.11;100.00;98755.50;5067716;28;20208;-76
2023/06/20 03:56:13;;;;;;;8.32;7.05;;;;;;;21.11;100.00;98744.72;5067220;28;20224;-76
2023/06/20 03:58:42;;;;;;;8.73;6.70;;;;;;;21.19;100.00;98746.56;5064801;28;20204;-76
2023/06/20 04:01:10;;;;;;;8.95;7.45;;;;;;;21.20;100.00;98742.84;5070121;28;20195;-76
2023/06/20 04:03:40;;;;;;;8.02;7.22;;;;;;;21.12;100.00;98741.84;5110990;28;20198;-77
2023/06/20 04:06:09;;;;;;;7.90;7.13;;;;;;;21.08;100.00;98745.94;5106156;28;20270;-76
2023/06/20 04:08:37;;;;;;;7.85;7.13;;;;;;;21.14;100.00;98744.41;5108870;28;20199;-76
2023/06/20 04:11:06;;;;;;;7.65;6.95;;;;;;;21.05;100.00;98748.97;5110383;28;20206;-76
2023/06/20 04:13:34;;;;;;;7.60;6.90;;;;;;;21.21;100.00;98753.44;5112174;28;20237;-77
2023/06/20 04:16:03;;;;;;;9.43;7.22;;;;;;;20.98;100.00;98748.00;5116330;28;20191;-77
2023/06/20 04:18:31;;;;;;;8.80;7.43;;;;;;;20.94;100.00;98743.13;5109632;28;20195;-76
2023/06/20 04:21:02;;;;;;;7.90;7.20;;;;;;;20.95;100.00;98742.97;5104378;28;20206;-77
2023/06/20 04:23:30;;;;;;;7.70;7.00;;;;;;;21.17;100.00;98748.59;5112374;28;20194;-76
2023/06/20 04:25:59;;;;;;;8.85;7.65;;;;;;;21.10;100.00;98745.75;5111552;28;20194;-77
2023/06/20 04:28:28;;;;;;;8.13;7.32;;;;;;;20.98;100.00;98752.53;5105108;28;20270;-77
2023/06/20 04:30:56;;;;;;;8.70;7.90;;;;;;;20.81;100.00;98749.06;5108367;28;20202;-77
2023/06/20 04:33:24;;;;;;;8.40;7.53;;;;;;;20.82;100.00;98754.28;5106294;28;20227;-77
2023/06/20 04:35:54;;;;;;;7.80;7.10;;;;;;;20.94;100.00;98746.69;5107317;28;20209;-76
2023/06/20 04:38:27;;;;;;;9.68;8.07;;;;;;;20.96;100.00;98755.41;5116471;27;20628;-77
2023/06/20 04:40:58;;;;;;;11.77;8.32;;;;;;;20.93;100.00;98752.22;5129002;27;20206;-77
2023/06/20 04:43:26;;;;;;;7.97;7.28;;;;;;;21.13;100.00;98745.38;5122304;27;20248;-77
2023/06/20 04:45:56;;;;;;;8.13;7.28;;;;;;;21.20;100.00;98741.00;5129557;27;20239;-77
2023/06/20 04:48:27;;;;;;;10.63;8.15;;;;;;;21.09;100.00;98736.84;5130411;27;20216;-76
2023/06/20 04:50:56;;;;;;;8.85;7.93;;;;;;;20.97;100.00;98732.84;5126514;27;20198;-77
2023/06/20 04:53:27;;;;;;;8.95;8.07;;;;;;;21.03;100.00;98731.31;5129274;27;20214;-77
2023/06/20 04:55:55;;;;;;;9.20;8.18;;;;;;;21.04;100.00;98741.09;5125202;27;20198;-77
2023/06/20 04:58:28;;;;;;;8.40;7.70;;;;;;;21.03;100.00;98742.91;5126849;27;20547;-77
2023/06/20 05:00:57;;;;;;;8.35;7.53;;;;;;;21.20;100.00;98735.59;5131522;27;20201;-77
2023/06/20 05:03:26;;;;;;;9.05;8.15;;;;;;;21.19;100.00;98746.56;5125344;27;20205;-76
2023/06/20 05:05:54;;;;;;;9.10;7.35;;;;;;;21.19;100.00;98738.47;5128844;27;20190;-77
2023/06/20 05:08:22;;;;;;;9.40;8.00;;;;;;;21.39;100.00;98731.66;5130976;27;20236;-77
2023/06/20 05:10:52;;;;;;;9.23;7.60;;;;;;;21.21;100.00;98734.56;5129053;27;20232;-77
2023/06/20 05:13:21;;;;;;;10.45;8.15;;;;;;;21.25;100.00;98730.53;5129701;27;20210;-77
2023/06/20 05:15:49;;;;;;;9.30;8.35;;;;;;;21.21;100.00;98736.44;5065353;28;20205;-77
2023/06/20 05:18:18;;;;;;;10.20;7.68;;;;;;;21.25;100.00;98733.22;5062639;28;20196;-77
2023/06/20 05:20:46;;;;;;;8.57;7.78;;;;;;;21.48;100.00;98746.75;5061996;28;20208;-77
2023/06/20 05:23:15;;;;;;;8.60;7.72;;;;;;;21.52;100.00;98742.72;5066859;28;20224;-77
2023/06/20 05:25:43;;;;;;;8.90;7.50;;;;;;;21.44;100.00;98742.75;5066814;28;20327;-77
2023/06/20 05:28:14;;;;;;;8.98;8.13;;;;;;;21.30;100.00;98755.09;5065927;28;20631;-76
2023/06/20 05:30:42;;;;;;;8.95;7.75;;;;;;;21.45;100.00;98749.81;5068112;28;20223;-76
2023/06/20 05:33:11;;;;;;;8.70;7.80;;;;;;;21.62;100.00;98753.25;5071449;27;20226;-77
2023/06/20 05:35:41;;;;;;;8.40;7.60;;;;;;;21.51;100.00;98748.25;5127815;27;20198;-77
2023/06/20 05:38:09;;;;;;;8.95;8.10;;;;;;;21.55;100.00;98745.03;5129015;27;20218;-77
2023/06/20 05:40:38;;;;;;;8.82;7.93;;;;;;;21.54;100.00;98756.84;5125524;27;20241;-77
2023/06/20 05:43:06;;;;;;;14.25;8.10;;;;;;;21.56;100.00;98759.34;5124896;27;20221;-77
2023/06/20 05:45:36;;;;;;;9.90;8.38;;;;;;;21.53;100.00;98760.56;5128379;27;20271;-77
2023/06/20 05:48:08;;;;;;;9.25;8.30;;;;;;;21.48;100.00;98762.94;5125307;27;20206;-77
2023/06/20 05:50:37;;;;;;;9.82;8.30;;;;;;;21.58;100.00;98758.16;5133435;27;20205;-76
2023/06/20 05:53:07;;;;;;;10.73;8.23;;;;;;;21.70;100.00;98751.31;5134470;27;20733;-76
2023/06/20 05:55:39;;;;;;;9.85;8.93;;;;;;;21.46;100.00;98756.88;5128210;27;20190;-77
2023/06/20 05:58:08;;;;;;;8.77;7.88;;;;;;;21.54;100.00;98758.69;5125326;27;20209;-77
2023/06/20 06:00:40;;;;;;;8.73;7.78;;;;;;;21.66;100.00;98757.25;5128150;27;20194;-77
2023/06/20 06:03:08;;;;;;;8.82;7.75;;;;;;;21.79;100.00;98756.66;5127071;27;20201;-77
2023/06/20 06:05:37;;;;;;;8.90;8.20;;;;;;;21.77;100.00;98754.16;5127520;27;20240;-77
2023/06/20 06:08:05;;;;;;;9.80;7.90;;;;;;;21.84;100.00;98754.28;5122728;27;20225;-77
2023/06/20 06:10:34;;;;;;;14.00;8.27;;;;;;;21.79;100.00;98767.44;5129651;27;20206;-76
2023/06/20 06:13:03;;;;;;;8.50;7.63;;;;;;;21.89;100.00;98760.78;5127210;27;20214;-77
2023/06/20 06:15:31;;;;;;;9.32;8.43;;;;;;;21.86;100.00;98765.72;5124487;27;20195;-76
2023/06/20 06:18:03;;;;;;;10.75;8.30;;;;;;;21.99;100.00;98772.16;5126041;27;20205;-78
2023/06/20 06:20:31;;;;;;;9.35;8.15;;;;;;;22.06;100.00;98776.84;5127160;27;20195;-78
2023/06/20 06:23:00;;;;;;;8.85;7.63;;;;;;;22.27;100.00;98780.56;5114484;27;20201;-78
2023/06/20 06:25:30;;;;;;;8.85;7.75;;;;;;;22.28;100.00;98767.91;5130447;27;20194;-77
2023/06/20 06:27:58;;;;;;;9.07;8.18;;;;;;;22.47;100.00;98780.06;5127712;27;20253;-77
2023/06/20 06:30:27;;;;;;;9.20;8.30;;;;;;;22.31;100.00;98785.63;5128070;27;20194;-77
2023/06/20 06:32:55;;;;;;;8.60;7.70;;;;;;;22.23;100.00;98791.94;5130133;27;20681;-77
2023/06/20 06:35:26;;;;;;;8.88;7.85;;;;;;;21.85;100.00;98785.63;5125063;27;20706;-77
2023/06/20 06:37:56;;;;;;;8.40;7.65;;;;;;;21.86;100.00;98793.53;5123375;27;20209;-77
2023/06/20 06:40:24;;;;;;;8.70;7.80;;;;;;;21.53;100.00;98802.84;5121434;27;20194;-77
2023/06/20 06:42:53;;;;;;;9.95;9.05;;;;;;;21.26;100.00;98810.38;5125786;27;20225;-77
2023/06/20 06:45:23;;;;;;;9.25;8.18;;;;;;;21.25;100.00;98807.81;5127436;27;20198;-77
2023/06/20 06:47:52;;;;;;;8.55;7.50;;;;;;;21.39;100.00;98802.56;5126183;27;20194;-77
2023/06/20 06:50:20;;;;;;;8.40;7.60;;;;;;;21.75;100.00;98795.78;5129665;27;20190;-77
2023/06/20 06:52:51;;;;;;;9.13;8.00;;;;;;;22.02;100.00;98789.03;5128891;27;20194;-77
2023/06/20 06:55:19;;;;;;;11.45;8.90;;;;;;;22.12;100.00;98790.50;5126095;27;20226;-77
2023/06/20 06:57:48;;;;;;;12.30;9.10;;;;;;;22.28;100.00;98792.22;5126181;27;20713;-77
2023/06/20 07:00:18;;;;;;;10.75;9.65;;;;;;;22.41;100.00;98795.16;5130930;27;20190;-77
2023/06/20 07:02:46;;;;;;;10.55;9.05;;;;;;;22.53;100.00;98793.66;5121316;27;20198;-77
2023/06/20 07:05:15;;;;;;;10.00;9.05;;;;;;;22.55;100.00;98791.63;5128665;28;20281;-77
2023/06/20 07:07:43;;;;;;;12.50;9.25;;;;;;;22.59;100.00;98786.72;5129073;27;20665;-77
2023/06/20 07:10:17;;;;;;;10.20;9.13;;;;;;;22.75;100.00;98780.28;5122804;28;20225;-77
2023/06/20 07:12:48;;;;;;;11.35;9.75;;;;;;;22.85;100.00;98781.72;5124753;28;20216;-77
2023/06/20 07:15:17;;;;;;;10.50;9.45;;;;;;;23.07;100.00;98782.66;5125107;28;20251;-77
2023/06/20 07:17:46;;;;;;;10.38;9.05;;;;;;;23.08;100.00;98767.28;5128071;28;20186;-77
2023/06/20 07:20:17;;;;;;;10.45;8.70;;;;;;;23.43;100.00;98773.75;5124596;28;20224;-77
2023/06/20 07:22:47;;;;;;;10.05;8.65;;;;;;;23.59;100.00;98764.59;5082655;28;20199;-77
2023/06/20 07:25:19;;;;;;;9.38;8.48;;;;;;;23.57;100.00;98772.88;5082741;28;20206;-77
2023/06/20 07:27:47;;;;;;;9.70;8.80;;;;;;;23.56;100.00;98768.50;5081932;28;20670;-77
2023/06/20 07:30:16;;;;;;;9.45;8.50;;;;;;;22.74;100.00;98771.34;5080754;28;20234;-76
2023/06/20 07:32:44;;;;;;;10.30;8.95;;;;;;;22.70;100.00;98782.72;5069650;28;20203;-77
2023/06/20 07:35:13;;;;;;;9.00;8.20;;;;;;;22.98;100.00;98774.84;5083300;28;20211;-77
2023/06/20 07:37:42;;;;;;;9.75;8.75;;;;;;;23.09;100.00;98777.91;5086490;28;20195;-78
2023/06/20 07:40:12;;;;;;;9.77;8.73;;;;;;;23.36;100.00;98779.09;5084204;28;20196;-76
2023/06/20 07:42:42;;;;;;;8.90;8.00;;;;;;;23.46;100.00;98772.56;5079138;28;20200;-77
2023/06/20 07:45:11;;;;;;;9.13;8.23;;;;;;;23.61;100.00;98760.69;5086664;28;20218;-77
2023/06/20 07:47:39;;;;;;;8.65;7.75;;;;;;;23.73;100.00;98763.72;5047699;28;20205;-77
2023/06/20 07:50:09;;;;;;;10.57;9.00;;;;;;;23.84;100.00;98752.41;5060866;28;20267;-77
2023/06/20 07:52:37;;;;;;;9.38;8.02;;;;;;;23.94;100.00;98744.81;5062281;28;20205;-77
2023/06/20 07:55:06;;;;;;;10.82;8.80;;;;;;;24.13;100.00;98742.47;5067350;28;20744;-77
2023/06/20 07:57:57;;;;;;;10.38;8.40;;;;;;;23.60;100.00;98747.34;5069769;28;20231;-77
2023/06/20 08:00:28;;;;;;;9.82;8.82;;;;;;;23.55;100.00;98742.50;5060092;28;20199;-77
2023/06/20 08:02:58;;;;;;;9.20;8.30;;;;;;;23.60;100.00;98745.47;5062696;28;20723;-77
2023/06/20 08:05:26;;;;;;;8.85;7.85;;;;;;;23.10;100.00;98755.25;4986285;28;20200;-77
2023/06/20 08:07:55;;;;;;;10.00;9.00;;;;;;;22.92;100.00;98759.38;4985806;28;20207;-77
2023/06/20 08:10:24;;;;;;;10.52;9.50;;;;;;;23.21;100.00;98750.41;4984750;28;20203;-77
2023/06/20 08:12:52;;;;;;;9.43;8.52;;;;;;;23.59;100.00;98746.50;5028257;28;20284;-77
2023/06/20 08:15:23;;;;;;;9.18;8.27;;;;;;;23.66;100.00;98754.72;5049814;28;20684;-76
2023/06/20 08:17:52;;;;;;;10.35;9.35;;;;;;;23.06;100.00;98753.09;4986630;28;20203;-77
2023/06/20 08:20:20;;;;;;;9.52;8.63;;;;;;;23.24;100.00;98753.56;4991676;28;20726;-77
2023/06/20 08:22:48;;;;;;;9.73;8.82;;;;;;;23.67;100.00;98746.41;4984955;28;20683;-77
2023/06/20 08:25:17;;;;;;;10.48;9.52;;;;;;;24.12;100.00;98743.47;4952858;29;20204;-77
2023/06/20 08:27:45;;;;;;;10.15;9.10;;;;;;;24.68;100.00;98743.50;4952846;29;20279;-77
2023/06/20 08:30:14;;;;;;;10.15;9.15;;;;;;;24.63;100.00;98740.59;4951443;29;20212;-77
2023/06/20 08:32:45;;;;;;;9.43;8.52;;;;;;;25.04;100.00;98743.34;4946941;29;20673;-77
2023/06/20 08:35:13;;;;;;;10.63;9.52;;;;;;;24.90;100.00;98730.72;4947684;29;20220;-77
2023/06/20 08:37:42;;;;;;;10.68;9.68;;;;;;;24.82;100.00;98734.44;4987496;28;20204;-79
2023/06/20 08:40:13;;;;;;;9.68;8.77;;;;;;;25.19;100.00;98724.22;4990700;28;20198;-77
2023/06/20 08:42:43;;;;;;;11.07;10.07;;;;;;;24.59;100.00;98720.34;5018468;28;20228;-77
2023/06/20 08:45:12;;;;;;;10.43;9.43;;;;;;;24.71;100.00;98725.00;5050323;28;20279;-77
2023/06/20 08:47:40;;;;;;;10.15;9.02;;;;;;;24.75;100.00;98728.97;5049953;28;20204;-77
2023/06/20 08:50:12;;;;;;;9.95;9.15;;;;;;;24.46;100.00;98723.78;5090540;27;20214;-76
2023/06/20 08:52:47;;;;;;;10.30;9.38;;;;;;;24.92;100.00;98712.41;5123013;27;20733;-77
2023/06/20 08:55:16;;;;;;;10.25;9.25;;;;;;;25.00;100.00;98720.38;5127179;27;20243;-77
2023/06/20 08:57:45;;;;;;;12.93;9.30;;;;;;;25.13;100.00;98720.44;5136131;27;20294;-77
2023/06/20 09:00:17;;;;;;;10.27;9.38;;;;;;;25.31;100.00;98723.44;5131286;27;20250;-77
2023/06/20 09:02:45;;;;;;;9.68;8.75;;;;;;;25.29;100.00;98724.69;5131508;27;20722;-77
2023/06/20 09:05:15;;;;;;;10.00;8.93;;;;;;;24.35;100.00;98735.19;5125345;27;20231;-77
2023/06/20 09:07:46;;;;;;;9.20;8.40;;;;;;;24.79;100.00;98726.69;5125530;27;20213;-78
2023/06/20 09:10:21;;;;;;;11.23;10.23;;;;;;;25.38;100.00;98718.88;5125398;27;20190;-77
2023/06/20 09:12:51;;;;;;;10.85;9.90;;;;;;;25.69;100.00;98715.63;5131407;27;20237;-77
2023/06/20 09:15:22;;;;;;;10.55;9.55;;;;;;;26.04;100.00;98712.75;5128787;27;20221;-77
2023/06/20 09:17:51;;;;;;;11.10;10.10;;;;;;;25.83;100.00;98716.50;5129875;27;20250;-77
2023/06/20 09:20:21;;;;;;;9.85;9.05;;;;;;;25.61;100.00;98723.94;5131218;27;20186;-77
2023/06/20 09:22:51;;;;;;;10.43;9.50;;;;;;;26.16;100.00;98721.97;5129817;27;20206;-77
2023/06/20 09:25:22;;;;;;;10.88;9.95;;;;;;;26.34;100.00;98723.19;5128447;27;20209;-77
2023/06/20 09:27:52;;;;;;;11.90;9.15;;;;;;;26.32;100.00;98715.25;5128298;27;20201;-77
2023/06/20 09:30:21;;;;;;;10.43;9.52;;;;;;;26.18;100.00;98706.28;5130042;27;20190;-78
2023/06/20 09:32:53;;;;;;;10.98;9.65;;;;;;;25.63;100.00;98718.31;5132035;27;20254;-77
2023/06/20 09:35:24;;;;;;;11.32;10.32;;;;;;;25.99;100.00;98719.84;5126568;27;20222;-77
2023/06/20 09:37:53;;;;;;;10.18;9.07;;;;;;;26.37;100.00;98715.50;5128893;27;20233;-77
2023/06/20 09:40:22;;;;;;;10.20;9.30;;;;;;;26.52;100.00;98704.38;5131802;27;20214;-77
2023/06/20 09:42:57;;;;;;;10.18;9.38;;;;;;;26.56;100.00;98704.81;5125552;27;20205;-77
2023/06/20 09:45:25;;;;;;;10.05;9.05;;;;;;;26.71;100.00;98718.97;5135076;27;20193;-78
2023/06/20 09:47:57;;;;;;;12.23;9.55;;;;;;;26.45;100.00;98709.84;5131132;27;20243;-77
2023/06/20 09:50:30;;;;;;;12.38;8.55;;;;;;;26.38;100.00;98705.47;5123965;27;20194;-77
2023/06/20 09:53:05;;;;;;;10.02;9.13;;;;;;;26.67;100.00;98706.88;5127757;27;20225;-77
2023/06/20 09:55:36;;;;;;;10.82;9.90;;;;;;;26.93;100.00;98695.09;5128578;27;20245;-77
2023/06/20 09:58:05;;;;;;;11.07;9.85;;;;;;;27.01;100.00;98689.41;5122263;27;20198;-77
2023/06/20 10:00:35;;;;;;;10.55;9.55;;;;;;;27.63;100.00;98693.31;5126789;27;20198;-77
2023/06/20 10:03:08;;;;;;;10.18;9.38;;;;;;;27.50;100.00;98687.94;5125092;27;20204;-77
2023/06/20 10:05:38;;;;;;;9.38;8.52;;;;;;;28.02;100.00;98680.50;5120742;27;20668;-77
2023/06/20 10:08:07;;;;;;;9.10;8.40;;;;;;;28.42;100.00;98687.25;5127433;27;20196;-78
2023/06/20 10:10:35;;;;;;;9.57;8.60;;;;;;;27.95;100.00;98681.38;5134521;27;20387;-77
2023/06/20 10:13:05;;;;;;;8.80;8.00;;;;;;;28.40;100.00;98686.66;5122262;27;20190;-77
2023/06/20 10:15:34;;;;;;;10.43;9.35;;;;;;;28.46;100.00;98688.47;5130275;27;20218;-78
2023/06/20 10:18:03;;;;;;;10.43;9.43;;;;;;;28.67;100.00;98695.41;5092463;27;20233;-77
2023/06/20 10:20:33;;;;;;;9.57;8.68;;;;;;;27.54;100.00;98686.44;5125575;27;20194;-77
2023/06/20 10:23:07;;;;;;;9.68;8.88;;;;;;;28.39;100.00;98686.91;5121020;27;20241;-78
2023/06/20 10:25:49;;;;;;;9.23;8.23;;;;;;;28.87;100.00;98700.63;5131825;27;20198;-77
2023/06/20 10:28:21;;;;;;;9.90;8.90;;;;;;;28.26;100.00;98693.25;5125008;27;20210;-77
2023/06/20 10:30:58;;;;;;;9.60;8.65;;;;;;;28.77;100.00;98698.44;5130401;27;20201;-77
2023/06/20 10:33:28;;;;;;;9.77;8.90;;;;;;;27.81;100.00;98681.69;5123848;27;20698;-78
2023/06/20 10:35:59;;;;;;;9.85;8.95;;;;;;;27.97;100.00;98678.41;5120390;27;20242;-77
2023/06/20 10:38:30;;;;;;;9.65;8.75;;;;;;;28.01;100.00;98690.53;5129429;27;20221;-77
2023/06/20 10:41:07;;;;;;;8.68;7.95;;;;;;;28.43;100.00;98680.75;5129190;27;20202;-77
2023/06/20 10:43:52;;;;;;;8.85;8.00;;;;;;;28.74;100.00;98684.41;5133083;27;20281;-77
2023/06/20 10:46:22;;;;;;;8.90;8.10;;;;;;;29.05;100.00;98678.00;5130440;27;20239;-77
2023/06/20 10:48:51;;;;;;;9.35;8.55;;;;;;;29.03;100.00;98686.41;5128348;27;20653;-77
2023/06/20 10:51:19;;;;;;;9.45;8.65;;;;;;;29.17;100.00;98691.72;5125038;27;20257;-77
2023/06/20 10:53:49;;;;;;;9.43;8.52;;;;;;;29.14;100.00;98690.25;5126331;27;20231;-77
2023/06/20 10:56:28;;;;;;;9.73;8.82;;;;;;;29.14;100.00;98690.25;5130800;27;20226;-77
2023/06/20 10:58:56;;;;;;;9.98;8.90;;;;;;;27.51;100.00;98676.84;5126370;27;20198;-77
2023/06/20 11:01:29;;;;;;;9.88;8.98;;;;;;;28.58;100.00;98680.41;5132326;27;20191;-78
2023/06/20 11:03:58;;;;;;;10.00;9.02;;;;;;;28.82;100.00;98680.56;5130810;27;20681;-77
2023/06/20 11:06:30;;;;;;;11.95;10.82;;;;;;;28.73;100.00;98686.31;5108729;28;20197;-77
2023/06/20 11:09:00;;;;;;;11.57;10.48;;;;;;;28.71;100.00;98685.69;5122307;28;20209;-78
2023/06/20 11:11:33;;;;;;;11.25;10.25;;;;;;;28.82;100.00;98684.13;5122048;28;20209;-77
2023/06/20 11:14:14;;;;;;;12.40;11.35;;;;;;;27.78;100.00;98680.22;5133676;28;20187;-77
2023/06/20 11:16:44;;;;;;;11.80;10.20;;;;;;;28.44;100.00;98676.97;5133425;28;20217;-77
2023/06/20 11:19:13;;;;;;;11.27;10.25;;;;;;;28.67;100.00;98679.06;5125080;28;20202;-78
2023/06/20 11:22:02;;;;;;;11.85;10.70;;;;;;;28.52;100.00;98676.69;5133822;28;20198;-77
2023/06/20 11:24:35;;;;;;;10.70;9.70;;;;;;;28.27;100.00;98673.13;5124163;27;20259;-77
2023/06/20 11:27:13;;;;;;;11.23;10.32;;;;;;;28.29;100.00;98664.78;5128988;28;20238;-77
2023/06/20 11:29:42;;;;;;;10.00;9.10;;;;;;;28.74;100.00;98665.31;5125263;28;20224;-77
2023/06/20 11:32:13;;;;;;;10.43;9.50;;;;;;;28.35;100.00;98677.47;5130306;28;20202;-76
2023/06/20 11:34:54;;;;;;;10.55;9.45;;;;;;;27.95;100.00;98675.91;5131951;28;20241;-78
2023/06/20 11:37:23;;;;;;;9.90;9.00;;;;;;;28.06;100.00;98671.63;5130064;28;20214;-77